Time;durP1;ratioP1;P1;durP2;ratioP2;P2;SDS_P1;SDS_P2;PMS_P1;PMS_P2;Temp;Humidity;BMP_temperature;BMP_pressure;BME280_temperature;BME280_humidity;BME280_pressure;Samples;Min_cycle;Max_cycle;Signal;HPM_P1;HPM_P2
2022/04/15 00:01:29;;;;;;;3.13;1.30;;;;;;;;;;5105364;28;20503;-68
2022/04/15 00:03:56;;;;;;;1.83;1.20;;;;;;;;;;5105382;28;20275;-68
2022/04/15 00:06:24;;;;;;;3.47;1.50;;;;;;;;;;5105234;28;20215;-68
2022/04/15 00:08:50;;;;;;;2.15;1.50;;;;;;;;;;5105423;28;20416;-68
2022/04/15 00:11:17;;;;;;;1.70;1.50;;;;;;;;;;5105394;28;20195;-68
2022/04/15 00:13:45;;;;;;;3.00;1.45;;;;;;;;;;5105307;28;20200;-68
2022/04/15 00:16:11;;;;;;;1.75;1.63;;;;;;;;;;5104807;28;20261;-68
2022/04/15 00:18:39;;;;;;;2.95;1.70;;;;;;;;;;5105024;28;20543;-68
2022/04/15 00:21:05;;;;;;;1.65;1.55;;;;;;;;;;5105228;28;20394;-68
2022/04/15 00:23:32;;;;;;;5.32;1.83;;;;;;;;;;5105085;28;20195;-68
2022/04/15 00:25:59;;;;;;;3.53;1.80;;;;;;;;;;5104736;28;20195;-68
2022/04/15 00:28:25;;;;;;;2.63;1.80;;;;;;;;;;5104972;28;20237;-68
2022/04/15 00:30:51;;;;;;;2.65;1.63;;;;;;;;;;5104915;28;20220;-68
2022/04/15 00:33:18;;;;;;;2.22;1.80;;;;;;;;;;5105166;28;20196;-68
2022/04/15 00:35:46;;;;;;;1.70;1.70;;;;;;;;;;5105175;28;20203;-68
2022/04/15 00:38:12;;;;;;;2.33;1.67;;;;;;;;;;5104610;28;20242;-68
2022/04/15 00:40:38;;;;;;;1.88;1.70;;;;;;;;;;5104816;28;20202;-68
2022/04/15 00:43:05;;;;;;;4.00;1.52;;;;;;;;;;5104742;28;20200;-68
2022/04/15 00:45:31;;;;;;;2.35;2.15;;;;;;;;;;5104986;28;20202;-68
2022/04/15 00:47:58;;;;;;;2.75;1.70;;;;;;;;;;5104535;28;20199;-68
2022/04/15 00:50:25;;;;;;;2.55;1.52;;;;;;;;;;5104618;28;20201;-68
2022/04/15 00:52:54;;;;;;;2.88;1.80;;;;;;;;;;5104821;28;20196;-68
2022/04/15 00:55:22;;;;;;;3.42;1.77;;;;;;;;;;5104448;28;20196;-68
2022/04/15 00:57:50;;;;;;;2.78;1.92;;;;;;;;;;5104085;28;20216;-68
2022/04/15 01:00:17;;;;;;;2.80;1.70;;;;;;;;;;5104245;28;20204;-68
2022/04/15 01:02:44;;;;;;;2.00;1.50;;;;;;;;;;5104477;28;20195;-68
2022/04/15 01:05:11;;;;;;;3.13;1.65;;;;;;;;;;5104341;28;20216;-68
2022/04/15 01:07:38;;;;;;;2.60;1.77;;;;;;;;;;5104057;28;20309;-68
2022/04/15 01:10:07;;;;;;;2.20;1.90;;;;;;;;;;5104161;28;20203;-68
2022/04/15 01:12:35;;;;;;;6.22;2.40;;;;;;;;;;5103985;28;20208;-68
2022/04/15 01:15:02;;;;;;;2.67;2.47;;;;;;;;;;5104247;28;20196;-68
2022/04/15 01:17:28;;;;;;;2.63;2.05;;;;;;;;;;5103716;28;20219;-68
2022/04/15 01:19:55;;;;;;;2.13;1.95;;;;;;;;;;5104081;28;20207;-68
2022/04/15 01:22:24;;;;;;;2.50;2.28;;;;;;;;;;5103959;28;20237;-68
2022/04/15 01:24:52;;;;;;;2.47;2.38;;;;;;;;;;5103789;28;20196;-68
2022/04/15 01:27:22;;;;;;;4.45;2.45;;;;;;;;;;5103454;28;20203;-68
2022/04/15 01:29:49;;;;;;;3.78;2.33;;;;;;;;;;5103763;28;20196;-68
2022/04/15 01:32:15;;;;;;;3.22;2.60;;;;;;;;;;5103866;28;20203;-68
2022/04/15 01:34:41;;;;;;;2.75;2.63;;;;;;;;;;5102911;28;20215;-68
2022/04/15 01:37:07;;;;;;;2.20;2.08;;;;;;;;;;5103477;28;20200;-68
2022/04/15 01:39:34;;;;;;;2.67;2.47;;;;;;;;;;5103315;28;20219;-68
2022/04/15 01:42:02;;;;;;;3.85;2.47;;;;;;;;;;5103585;28;20203;-68
2022/04/15 01:44:29;;;;;;;3.22;2.50;;;;;;;;;;5103442;28;20437;-68
2022/04/15 01:46:55;;;;;;;2.80;2.60;;;;;;;;;;5103203;28;20413;-68
2022/04/15 01:49:21;;;;;;;4.18;2.45;;;;;;;;;;5103326;28;20196;-68
2022/04/15 01:51:47;;;;;;;2.85;2.10;;;;;;;;;;5103499;28;20245;-68
2022/04/15 01:54:14;;;;;;;2.63;2.30;;;;;;;;;;5103324;28;20208;-68
2022/04/15 01:56:41;;;;;;;3.75;2.67;;;;;;;;;;5102595;28;20199;-68
2022/04/15 01:59:09;;;;;;;5.40;2.78;;;;;;;;;;5103008;28;20538;-68
2022/04/15 02:01:35;;;;;;;4.25;3.00;;;;;;;;;;5103031;28;20208;-68
2022/04/15 02:04:02;;;;;;;3.05;2.83;;;;;;;;;;5103380;28;20196;-68
2022/04/15 02:06:28;;;;;;;4.30;2.83;;;;;;;;;;5102964;28;20216;-68
2022/04/15 02:08:54;;;;;;;4.07;2.45;;;;;;;;;;5103247;28;20199;-68
2022/04/15 02:11:20;;;;;;;3.45;3.15;;;;;;;;;;5103091;28;20204;-68
2022/04/15 02:13:47;;;;;;;3.85;2.97;;;;;;;;;;5103078;28;20515;-68
2022/04/15 02:16:14;;;;;;;3.70;3.00;;;;;;;;;;5103127;28;20413;-68
2022/04/15 02:18:40;;;;;;;3.47;3.17;;;;;;;;;;5103038;28;20223;-68
2022/04/15 02:21:07;;;;;;;5.07;2.88;;;;;;;;;;5102874;28;20199;-68
2022/04/15 02:23:33;;;;;;;3.22;2.92;;;;;;;;;;5102703;28;20241;-68
2022/04/15 02:25:59;;;;;;;2.60;2.50;;;;;;;;;;5102739;28;20195;-68
2022/04/15 02:28:25;;;;;;;3.53;3.20;;;;;;;;;;5103149;28;20192;-68
2022/04/15 02:30:52;;;;;;;2.75;2.55;;;;;;;;;;5102644;28;20195;-68
2022/04/15 02:33:20;;;;;;;3.08;2.80;;;;;;;;;;5102872;28;20194;-68
2022/04/15 02:35:46;;;;;;;3.25;3.05;;;;;;;;;;5102923;28;20425;-68
2022/04/15 02:38:13;;;;;;;3.70;3.33;;;;;;;;;;5102369;28;20226;-68
2022/04/15 02:40:39;;;;;;;3.25;2.85;;;;;;;;;;5102857;28;20200;-68
2022/04/15 02:43:06;;;;;;;4.18;3.28;;;;;;;;;;5102530;28;20207;-68
2022/04/15 02:45:32;;;;;;;3.28;2.88;;;;;;;;;;5102758;28;20213;-68
2022/04/15 02:47:59;;;;;;;4.10;2.95;;;;;;;;;;5102417;28;20196;-68
2022/04/15 02:50:28;;;;;;;2.83;2.60;;;;;;;;;;5102488;28;20200;-68
2022/04/15 02:52:54;;;;;;;3.75;3.30;;;;;;;;;;5102445;28;20195;-68
2022/04/15 02:55:20;;;;;;;3.15;2.85;;;;;;;;;;5102493;28;20253;-68
2022/04/15 02:57:46;;;;;;;3.30;3.10;;;;;;;;;;5102131;28;20203;-68
2022/04/15 03:00:14;;;;;;;4.03;3.25;;;;;;;;;;5102381;28;20219;-68
2022/04/15 03:02:40;;;;;;;5.75;2.78;;;;;;;;;;5102509;28;20518;-68
2022/04/15 03:05:09;;;;;;;4.05;3.55;;;;;;;;;;5102590;28;20223;-68
2022/04/15 03:07:36;;;;;;;4.90;2.70;;;;;;;;;;5102382;28;20195;-68
2022/04/15 03:10:03;;;;;;;3.10;3.00;;;;;;;;;;5106450;28;20397;-68
2022/04/15 03:12:29;;;;;;;3.00;2.80;;;;;;;;;;5106347;28;20522;-68
2022/04/15 03:14:55;;;;;;;7.60;3.03;;;;;;;;;;5106578;28;20433;-68
2022/04/15 03:17:22;;;;;;;4.68;3.15;;;;;;;;;;5106164;28;20254;-68
2022/04/15 03:19:48;;;;;;;3.30;3.00;;;;;;;;;;5106296;28;20219;-68
2022/04/15 03:22:16;;;;;;;4.40;3.15;;;;;;;;;;5106333;28;20195;-68
2022/04/15 03:24:44;;;;;;;4.63;3.70;;;;;;;;;;5106248;28;20234;-68
2022/04/15 03:27:11;;;;;;;3.40;3.10;;;;;;;;;;5106633;28;20203;-68
2022/04/15 03:29:37;;;;;;;3.38;2.63;;;;;;;;;;5106397;28;20491;-68
2022/04/15 03:32:04;;;;;;;3.47;3.17;;;;;;;;;;5106345;28;20371;-68
2022/04/15 03:34:30;;;;;;;3.58;3.17;;;;;;;;;;5106071;28;20202;-68
2022/04/15 03:36:57;;;;;;;3.97;3.35;;;;;;;;;;5105833;28;20379;-68
2022/04/15 03:39:23;;;;;;;3.35;3.05;;;;;;;;;;5105820;28;20422;-68
2022/04/15 03:41:50;;;;;;;3.10;2.78;;;;;;;;;;5105965;28;20386;-68
2022/04/15 03:44:17;;;;;;;3.78;3.47;;;;;;;;;;5105985;28;20372;-68
2022/04/15 03:46:43;;;;;;;3.25;2.97;;;;;;;;;;5105801;28;20203;-68
2022/04/15 03:49:09;;;;;;;3.50;3.20;;;;;;;;;;5105787;28;20229;-68
2022/04/15 03:51:35;;;;;;;3.80;3.30;;;;;;;;;;5105720;28;20196;-68
2022/04/15 03:54:02;;;;;;;5.00;3.20;;;;;;;;;;5105643;28;20241;-68
2022/04/15 03:56:28;;;;;;;3.80;3.50;;;;;;;;;;5105398;28;20546;-68
2022/04/15 03:58:56;;;;;;;4.07;3.13;;;;;;;;;;5105805;28;20396;-68
2022/04/15 04:01:22;;;;;;;2.90;2.75;;;;;;;;;;5104572;28;20208;-68
2022/04/15 04:03:48;;;;;;;3.28;3.08;;;;;;;;;;5104257;28;20195;-68
2022/04/15 04:06:14;;;;;;;3.13;2.85;;;;;;;;;;5103979;28;20216;-68
2022/04/15 04:08:48;;;;;;;3.38;2.80;;;;;;;;;;5104049;28;20233;-68
2022/04/15 04:11:15;;;;;;;3.97;3.05;;;;;;;;;;5104323;28;20503;-68
2022/04/15 04:13:41;;;;;;;3.72;3.28;;;;;;;;;;5104318;28;20429;-68
2022/04/15 04:16:09;;;;;;;3.30;3.05;;;;;;;;;;5103796;28;20195;-67
2022/04/15 04:18:35;;;;;;;4.10;3.30;;;;;;;;;;5103445;28;20227;-66
2022/04/15 04:21:01;;;;;;;7.40;3.05;;;;;;;;;;5103919;28;20203;-67
2022/04/15 04:23:27;;;;;;;3.15;2.95;;;;;;;;;;5103836;28;20421;-66
2022/04/15 04:25:54;;;;;;;6.35;3.08;;;;;;;;;;5103748;28;20428;-66
2022/04/15 04:28:20;;;;;;;4.20;3.42;;;;;;;;;;5103806;28;20396;-66
2022/04/15 04:30:46;;;;;;;3.60;3.30;;;;;;;;;;5103915;28;20196;-67
2022/04/15 04:33:14;;;;;;;3.95;3.50;;;;;;;;;;5103814;28;20195;-66
2022/04/15 04:35:40;;;;;;;3.15;2.85;;;;;;;;;;5103660;28;20241;-67
2022/04/15 04:38:06;;;;;;;3.55;3.33;;;;;;;;;;5103397;28;20207;-67
2022/04/15 04:40:33;;;;;;;4.93;3.92;;;;;;;;;;5103764;28;20239;-67
2022/04/15 04:42:59;;;;;;;3.38;3.10;;;;;;;;;;5103587;28;20196;-66
2022/04/15 04:45:26;;;;;;;3.70;3.53;;;;;;;;;;5104018;28;20196;-67
2022/04/15 04:47:53;;;;;;;4.03;3.55;;;;;;;;;;5103576;28;20191;-66
2022/04/15 04:50:20;;;;;;;3.72;3.40;;;;;;;;;;5103514;28;20192;-66
2022/04/15 04:52:47;;;;;;;3.60;3.40;;;;;;;;;;5103426;28;20200;-66
2022/04/15 04:55:13;;;;;;;4.18;3.88;;;;;;;;;;5103528;28;20271;-66
2022/04/15 04:57:42;;;;;;;4.65;3.90;;;;;;;;;;5103264;28;20202;-66
2022/04/15 05:00:10;;;;;;;6.10;4.30;;;;;;;;;;5066988;28;1038101;-66
2022/04/15 05:02:36;;;;;;;3.90;3.60;;;;;;;;;;5104393;28;20217;-66
2022/04/15 05:05:02;;;;;;;4.63;4.10;;;;;;;;;;5104561;28;20227;-66
2022/04/15 05:07:30;;;;;;;4.10;3.70;;;;;;;;;;5104218;28;20200;-66
2022/04/15 05:09:56;;;;;;;4.10;3.70;;;;;;;;;;5104350;28;20390;-65
2022/04/15 05:12:22;;;;;;;5.88;4.00;;;;;;;;;;5104194;28;20394;-65
2022/04/15 05:14:49;;;;;;;6.88;4.10;;;;;;;;;;5104152;28;20203;-66
2022/04/15 05:17:15;;;;;;;6.80;4.63;;;;;;;;;;5103907;28;20426;-66
2022/04/15 05:19:41;;;;;;;5.90;4.20;;;;;;;;;;5103847;28;20224;-67
2022/04/15 05:22:08;;;;;;;6.15;4.88;;;;;;;;;;5104102;28;20195;-66
2022/04/15 05:24:36;;;;;;;4.80;4.40;;;;;;;;;;5104035;28;20195;-66
2022/04/15 05:27:02;;;;;;;7.47;4.22;;;;;;;;;;5103720;28;20223;-67
2022/04/15 05:29:29;;;;;;;5.28;4.68;;;;;;;;;;5103823;28;20213;-66
2022/04/15 05:31:57;;;;;;;4.07;3.78;;;;;;;;;;5103063;28;20196;-66
2022/04/15 05:34:23;;;;;;;4.65;4.30;;;;;;;;;;5103633;28;20195;-66
2022/04/15 05:36:49;;;;;;;5.88;3.92;;;;;;;;;;5103587;28;20196;-66
2022/04/15 05:39:16;;;;;;;5.60;3.97;;;;;;;;;;5103637;28;20638;-66
2022/04/15 05:41:43;;;;;;;6.22;3.95;;;;;;;;;;5103686;28;20195;-66
2022/04/15 05:44:12;;;;;;;6.82;4.28;;;;;;;;;;5103544;28;20210;-65
2022/04/15 05:46:39;;;;;;;5.28;4.88;;;;;;;;;;5103115;28;20220;-66
2022/04/15 05:49:06;;;;;;;4.47;4.13;;;;;;;;;;5103660;28;20512;-66
2022/04/15 05:51:33;;;;;;;12.15;8.45;;;;;;;;;;5103619;28;20196;-66
2022/04/15 05:53:59;;;;;;;9.60;5.68;;;;;;;;;;5103506;28;20196;-66
2022/04/15 05:56:25;;;;;;;5.22;4.57;;;;;;;;;;5103081;28;20257;-66
2022/04/15 05:58:53;;;;;;;8.30;4.95;;;;;;;;;;5103236;28;20196;-66
2022/04/15 06:01:21;;;;;;;9.23;5.03;;;;;;;;;;5103053;28;20208;-66
2022/04/15 06:03:47;;;;;;;5.88;4.60;;;;;;;;;;5103273;28;20432;-66
2022/04/15 06:06:13;;;;;;;6.43;4.88;;;;;;;;;;5102778;28;20215;-66
2022/04/15 06:08:39;;;;;;;7.03;5.07;;;;;;;;;;5103143;28;20199;-66
2022/04/15 06:11:06;;;;;;;5.07;4.60;;;;;;;;;;5103059;28;20233;-66
2022/04/15 06:13:32;;;;;;;6.30;5.43;;;;;;;;;;5103044;28;20527;-66
2022/04/15 06:15:59;;;;;;;10.75;5.30;;;;;;;;;;5102708;28;20192;-66
2022/04/15 06:18:26;;;;;;;6.95;5.18;;;;;;;;;;5103310;28;20196;-66
2022/04/15 06:20:53;;;;;;;6.72;4.95;;;;;;;;;;5102863;28;20223;-66
2022/04/15 06:23:20;;;;;;;5.40;4.78;;;;;;;;;;5103075;28;20517;-66
2022/04/15 06:25:46;;;;;;;6.60;5.00;;;;;;;;;;5102906;28;20200;-67
2022/04/15 06:28:13;;;;;;;7.07;5.40;;;;;;;;;;5103040;28;20487;-67
2022/04/15 06:30:39;;;;;;;7.45;5.07;;;;;;;;;;5102782;28;20204;-67
2022/04/15 06:33:08;;;;;;;5.60;5.10;;;;;;;;;;5102922;28;20417;-67
2022/04/15 06:35:35;;;;;;;5.72;5.18;;;;;;;;;;5102816;28;20559;-67
2022/04/15 06:38:01;;;;;;;5.88;5.38;;;;;;;;;;5102576;28;20256;-67
2022/04/15 06:40:27;;;;;;;8.52;5.30;;;;;;;;;;5102514;28;20212;-66
2022/04/15 06:42:54;;;;;;;6.40;5.82;;;;;;;;;;5102873;28;20199;-67
2022/04/15 06:45:20;;;;;;;7.72;5.35;;;;;;;;;;5102771;28;20222;-66
2022/04/15 06:47:46;;;;;;;8.80;5.20;;;;;;;;;;5102238;28;20203;-66
2022/04/15 06:50:14;;;;;;;8.95;5.90;;;;;;;;;;5102405;28;20192;-67
2022/04/15 06:52:41;;;;;;;7.85;5.70;;;;;;;;;;5102425;28;20219;-67
2022/04/15 06:55:07;;;;;;;6.45;5.35;;;;;;;;;;5102528;28;20232;-67
2022/04/15 06:57:34;;;;;;;6.30;5.80;;;;;;;;;;5102010;28;20202;-67
2022/04/15 07:00:00;;;;;;;6.68;5.60;;;;;;;;;;5102154;28;20211;-67
2022/04/15 07:02:27;;;;;;;7.00;5.65;;;;;;;;;;5102474;28;20394;-67
2022/04/15 07:04:53;;;;;;;6.25;5.43;;;;;;;;;;5102392;28;20200;-67
2022/04/15 07:07:21;;;;;;;5.75;5.35;;;;;;;;;;5102155;28;20194;-67
2022/04/15 07:09:49;;;;;;;6.72;5.70;;;;;;;;;;5102359;28;20196;-67
2022/04/15 07:12:16;;;;;;;8.07;6.13;;;;;;;;;;5102486;28;20541;-67
2022/04/15 07:14:42;;;;;;;6.88;6.07;;;;;;;;;;5103045;28;20234;-67
2022/04/15 07:17:08;;;;;;;8.82;5.82;;;;;;;;;;5104633;28;20487;-67
2022/04/15 07:19:34;;;;;;;6.30;5.80;;;;;;;;;;5102241;28;20261;-67
2022/04/15 07:22:01;;;;;;;6.95;5.50;;;;;;;;;;5102253;28;20195;-67
2022/04/15 07:24:30;;;;;;;8.13;5.82;;;;;;;;;;5102234;28;20221;-59
2022/04/15 07:26:56;;;;;;;8.85;6.00;;;;;;;;;;5101947;28;20489;-60
2022/04/15 07:29:26;;;;;;;6.35;5.32;;;;;;;;;;5102161;28;20241;-61
2022/04/15 07:31:52;;;;;;;7.00;6.30;;;;;;;;;;5101833;28;20419;-61
2022/04/15 07:34:18;;;;;;;6.03;5.53;;;;;;;;;;5102216;28;20205;-61
2022/04/15 07:36:46;;;;;;;7.45;6.50;;;;;;;;;;5101976;28;20249;-61
2022/04/15 07:39:14;;;;;;;11.35;7.22;;;;;;;;;;5101909;28;20394;-60
2022/04/15 07:41:42;;;;;;;10.00;8.32;;;;;;;;;;5101939;28;20241;-60
2022/04/15 07:44:09;;;;;;;10.32;8.30;;;;;;;;;;5101967;28;20199;-61
2022/04/15 07:46:35;;;;;;;10.85;8.20;;;;;;;;;;5101773;28;20500;-61
2022/04/15 07:49:02;;;;;;;10.48;7.82;;;;;;;;;;5102226;28;20196;-62
2022/04/15 07:51:28;;;;;;;8.75;7.38;;;;;;;;;;5102166;28;20192;-61
2022/04/15 07:53:54;;;;;;;10.45;7.00;;;;;;;;;;5102594;28;20196;-61
2022/04/15 07:56:21;;;;;;;8.55;7.30;;;;;;;;;;5105531;28;20204;-61
2022/04/15 07:58:50;;;;;;;10.32;6.70;;;;;;;;;;5105486;28;20204;-61
2022/04/15 08:01:16;;;;;;;12.52;8.00;;;;;;;;;;5105338;28;20219;-59
2022/04/15 08:03:43;;;;;;;10.80;8.93;;;;;;;;;;5105432;28;20429;-61
2022/04/15 08:06:10;;;;;;;11.15;8.48;;;;;;;;;;5105105;28;20227;-60
2022/04/15 08:08:36;;;;;;;9.43;8.20;;;;;;;;;;5105453;28;20457;-60
2022/04/15 08:11:02;;;;;;;9.07;8.15;;;;;;;;;;5105695;28;20356;-61
2022/04/15 08:13:29;;;;;;;9.70;8.45;;;;;;;;;;5105551;28;20421;-60
2022/04/15 08:15:56;;;;;;;11.82;8.70;;;;;;;;;;5105537;28;20208;-60
2022/04/15 08:18:23;;;;;;;10.43;9.32;;;;;;;;;;5105164;28;20241;-59
2022/04/15 08:20:50;;;;;;;11.55;8.68;;;;;;;;;;5104359;28;20407;-61
2022/04/15 08:23:17;;;;;;;10.23;8.32;;;;;;;;;;5104804;28;20234;-60
2022/04/15 08:25:44;;;;;;;11.13;9.30;;;;;;;;;;5104664;28;20372;-61
2022/04/15 08:28:10;;;;;;;13.45;9.18;;;;;;;;;;5104650;28;20196;-61
2022/04/15 08:30:37;;;;;;;11.82;9.18;;;;;;;;;;5104412;28;20492;-59
2022/04/15 08:33:05;;;;;;;10.95;8.40;;;;;;;;;;5104375;28;20505;-61
2022/04/15 08:35:32;;;;;;;11.77;8.93;;;;;;;;;;5104411;28;20204;-62
2022/04/15 08:37:58;;;;;;;12.15;8.85;;;;;;;;;;5103899;28;20196;-62
2022/04/15 08:40:24;;;;;;;13.20;9.57;;;;;;;;;;5104207;28;20223;-61
2022/04/15 08:42:51;;;;;;;11.15;9.43;;;;;;;;;;5104108;28;20203;-61
2022/04/15 08:45:19;;;;;;;12.15;9.48;;;;;;;;;;5104440;28;20196;-61
2022/04/15 08:47:46;;;;;;;13.15;9.82;;;;;;;;;;5103753;28;20211;-60
2022/04/15 08:50:14;;;;;;;11.98;10.43;;;;;;;;;;5103923;28;20223;-59
2022/04/15 08:52:41;;;;;;;11.57;9.48;;;;;;;;;;5104193;28;20495;-59
2022/04/15 08:55:08;;;;;;;12.10;10.18;;;;;;;;;;5104033;28;20202;-60
2022/04/15 08:57:34;;;;;;;11.30;9.32;;;;;;;;;;5103768;28;20195;-61
2022/04/15 09:00:01;;;;;;;10.70;9.50;;;;;;;;;;5103583;28;20480;-61
2022/04/15 09:02:32;;;;;;;11.27;10.13;;;;;;;;;;5103686;28;20196;-60
2022/04/15 09:04:58;;;;;;;14.77;9.57;;;;;;;;;;5102954;28;20222;-61
2022/04/15 09:07:29;;;;;;;11.95;9.65;;;;;;;;;;5103119;28;20200;-61
2022/04/15 09:09:56;;;;;;;15.73;10.45;;;;;;;;;;5103687;28;20188;-61
2022/04/15 09:12:25;;;;;;;12.10;10.73;;;;;;;;;;5103475;28;20203;-61
2022/04/15 09:14:52;;;;;;;12.05;10.77;;;;;;;;;;5103318;28;20203;-61
2022/04/15 09:17:22;;;;;;;11.13;10.05;;;;;;;;;;5103169;28;20205;-61
2022/04/15 09:19:48;;;;;;;14.65;10.80;;;;;;;;;;5103467;28;20204;-62
2022/04/15 09:22:17;;;;;;;14.05;11.00;;;;;;;;;;5103379;28;20545;-62
2022/04/15 09:24:45;;;;;;;11.75;10.35;;;;;;;;;;5103302;28;20199;-62
2022/04/15 09:27:11;;;;;;;16.60;12.18;;;;;;;;;;5103070;28;20436;-61
2022/04/15 09:29:40;;;;;;;12.60;11.30;;;;;;;;;;5103038;28;20503;-59
2022/04/15 09:32:08;;;;;;;10.73;9.60;;;;;;;;;;5103865;28;20195;-60
2022/04/15 09:34:34;;;;;;;11.50;9.95;;;;;;;;;;5103827;28;20255;-60
2022/04/15 09:37:05;;;;;;;12.00;10.77;;;;;;;;;;5103446;28;20429;-61
2022/04/15 09:39:31;;;;;;;14.50;11.77;;;;;;;;;;5103551;28;20196;-60
2022/04/15 09:42:05;;;;;;;13.60;11.38;;;;;;;;;;5103440;28;20223;-60
2022/04/15 09:44:33;;;;;;;11.73;10.52;;;;;;;;;;5103673;28;20217;-61
2022/04/15 09:47:03;;;;;;;13.52;12.10;;;;;;;;;;5103373;28;20195;-61
2022/04/15 09:49:32;;;;;;;17.58;12.60;;;;;;;;;;5103572;28;20196;-61
2022/04/15 09:51:59;;;;;;;14.25;12.88;;;;;;;;;;5103860;28;20360;-61
2022/04/15 09:54:26;;;;;;;15.02;11.80;;;;;;;;;;5103385;28;20204;-61
2022/04/15 09:56:53;;;;;;;13.90;12.55;;;;;;;;;;5102972;28;20202;-61
2022/04/15 09:59:22;;;;;;;16.75;12.30;;;;;;;;;;5103404;28;20387;-61
2022/04/15 10:01:50;;;;;;;15.20;11.63;;;;;;;;;;5103145;28;20223;-61
2022/04/15 10:04:16;;;;;;;11.95;10.80;;;;;;;;;;5103236;28;20196;-61
2022/04/15 10:06:43;;;;;;;18.02;14.00;;;;;;;;;;5102831;28;20538;-61
2022/04/15 10:09:12;;;;;;;14.43;12.13;;;;;;;;;;5103065;28;20206;-62
2022/04/15 10:11:40;;;;;;;13.80;11.00;;;;;;;;;;5103179;28;20214;-61
2022/04/15 10:14:06;;;;;;;13.00;11.38;;;;;;;;;;5103157;28;20199;-61
2022/04/15 10:16:35;;;;;;;11.77;10.35;;;;;;;;;;5102719;28;20199;-61
2022/04/15 10:19:02;;;;;;;11.68;10.02;;;;;;;;;;5103072;28;20241;-62
2022/04/15 10:21:29;;;;;;;11.60;10.43;;;;;;;;;;5102936;28;20523;-61
2022/04/15 10:23:55;;;;;;;10.68;9.55;;;;;;;;;;5102962;28;20195;-61
2022/04/15 10:26:23;;;;;;;10.95;9.00;;;;;;;;;;5102833;28;20207;-61
2022/04/15 10:28:49;;;;;;;10.73;9.73;;;;;;;;;;5102982;28;20208;-61
2022/04/15 10:31:16;;;;;;;10.60;9.30;;;;;;;;;;5102963;28;20192;-63
2022/04/15 10:33:44;;;;;;;10.60;9.70;;;;;;;;;;5102747;28;20187;-61
2022/04/15 10:36:12;;;;;;;11.32;9.40;;;;;;;;;;5102453;28;20371;-62
2022/04/15 10:38:58;;;;;;;11.40;7.95;;;;;;;;;;5102886;28;20274;-61
2022/04/15 10:41:24;;;;;;;14.30;9.70;;;;;;;;;;5102617;28;20548;-59
2022/04/15 10:43:56;;;;;;;14.65;9.50;;;;;;;;;;5102637;28;20199;-60
2022/04/15 10:46:28;;;;;;;10.60;9.65;;;;;;;;;;5102182;28;20503;-61
2022/04/15 10:48:57;;;;;;;8.45;7.75;;;;;;;;;;5102417;28;20278;-61
2022/04/15 10:51:25;;;;;;;9.07;8.05;;;;;;;;;;5102644;28;20393;-60
2022/04/15 10:53:52;;;;;;;7.40;6.78;;;;;;;;;;5102359;28;20271;-60
2022/04/15 10:56:20;;;;;;;8.50;7.70;;;;;;;;;;5102177;28;20426;-60
2022/04/15 11:01:13;;;;;;;8.93;7.30;;;;;;;;;;5102258;28;20233;-60
2022/04/15 11:01:33;;;;;;;9.90;7.45;;;;;;;;;;5102125;28;20216;-59
2022/04/15 11:04:04;;;;;;;6.57;6.00;;;;;;;;;;5102599;28;20514;-60
2022/04/15 11:06:31;;;;;;;7.03;5.72;;;;;;;;;;5102314;28;20384;-59
2022/04/15 11:08:58;;;;;;;6.43;5.90;;;;;;;;;;5102483;28;20199;-58
2022/04/15 11:11:33;;;;;;;7.32;6.68;;;;;;;;;;5102290;28;20192;-59
2022/04/15 11:14:02;;;;;;;6.20;5.70;;;;;;;;;;5102312;28;20203;-60
2022/04/15 11:16:44;;;;;;;7.80;6.30;;;;;;;;;;5102303;28;20200;-60
2022/04/15 11:19:14;;;;;;;9.52;6.75;;;;;;;;;;5097154;28;20495;-60
2022/04/15 11:21:41;;;;;;;8.20;7.50;;;;;;;;;;5093439;28;20211;-60
2022/04/15 11:24:08;;;;;;;10.38;8.52;;;;;;;;;;5102662;28;20195;-60
2022/04/15 11:26:35;;;;;;;7.13;6.43;;;;;;;;;;5102072;28;20196;-60
2022/04/15 11:29:03;;;;;;;11.95;5.90;;;;;;;;;;5103255;28;20196;-59
2022/04/15 11:31:30;;;;;;;7.60;5.90;;;;;;;;;;5106270;28;20203;-60
2022/04/15 11:33:57;;;;;;;6.43;5.20;;;;;;;;;;5106190;28;20195;-61
2022/04/15 11:36:25;;;;;;;6.50;5.90;;;;;;;;;;5105738;28;20557;-60
2022/04/15 11:38:52;;;;;;;5.93;5.38;;;;;;;;;;5105756;28;20207;-60
2022/04/15 11:41:19;;;;;;;5.65;5.13;;;;;;;;;;5105814;28;20215;-60
2022/04/15 11:43:49;;;;;;;5.60;5.03;;;;;;;;;;5105757;28;20210;-60
2022/04/15 11:46:15;;;;;;;7.43;5.85;;;;;;;;;;5105604;28;20195;-60
2022/04/15 11:48:42;;;;;;;5.78;5.28;;;;;;;;;;5105761;28;20687;-60
2022/04/15 11:51:08;;;;;;;6.40;5.18;;;;;;;;;;5105666;28;20220;-60
2022/04/15 11:53:35;;;;;;;5.68;5.13;;;;;;;;;;5105997;28;20317;-60
2022/04/15 11:56:02;;;;;;;5.68;4.95;;;;;;;;;;5105388;28;20210;-61
2022/04/15 11:58:32;;;;;;;7.38;6.03;;;;;;;;;;5105734;28;20195;-60
2022/04/15 12:00:59;;;;;;;7.80;7.00;;;;;;;;;;5105368;28;20216;-60
2022/04/15 12:03:26;;;;;;;8.43;7.45;;;;;;;;;;5105384;28;20219;-60
2022/04/15 12:05:54;;;;;;;6.70;5.82;;;;;;;;;;5105184;28;20216;-60
2022/04/15 12:08:20;;;;;;;6.30;5.80;;;;;;;;;;5105332;28;20216;-60
2022/04/15 12:10:48;;;;;;;7.43;6.50;;;;;;;;;;5105232;28;20196;-60
2022/04/15 12:13:15;;;;;;;6.35;5.75;;;;;;;;;;5105341;28;20455;-60
2022/04/15 12:15:42;;;;;;;6.32;5.15;;;;;;;;;;5105187;28;20202;-60
2022/04/15 12:18:08;;;;;;;7.53;6.07;;;;;;;;;;5104650;28;20199;-60
2022/04/15 12:20:35;;;;;;;9.35;6.97;;;;;;;;;;5105098;28;20215;-61
2022/04/15 12:23:02;;;;;;;6.55;5.88;;;;;;;;;;5091997;28;20219;-61
2022/04/15 12:26:05;;;;;;;8.00;6.53;;;;;;;;;;5098510;28;20249;-61
2022/04/15 12:30:57;;;;;;;6.70;5.97;;;;;;;;;;5075964;28;20231;-61
2022/04/15 12:33:24;;;;;;;5.45;4.88;;;;;;;;;;5098983;28;20230;-59
2022/04/15 12:36:01;;;;;;;6.30;5.78;;;;;;;;;;5101072;28;20222;-60
2022/04/15 12:38:27;;;;;;;7.95;6.38;;;;;;;;;;5100260;28;20197;-60
2022/04/15 12:40:59;;;;;;;7.03;5.57;;;;;;;;;;5084293;28;20195;-60
2022/04/15 12:43:27;;;;;;;7.78;5.68;;;;;;;;;;5084376;28;20196;-60
2022/04/15 12:45:54;;;;;;;9.27;5.38;;;;;;;;;;5084169;28;20196;-60
2022/04/15 12:48:20;;;;;;;5.57;4.05;;;;;;;;;;5084469;28;20417;-58
2022/04/15 12:50:47;;;;;;;6.93;6.28;;;;;;;;;;5084327;28;20387;-60
2022/04/15 12:53:14;;;;;;;7.38;5.53;;;;;;;;;;5084236;28;20195;-60
2022/04/15 12:55:40;;;;;;;7.43;6.70;;;;;;;;;;5084163;28;20203;-60
2022/04/15 12:58:17;;;;;;;8.07;7.30;;;;;;;;;;5083838;28;20390;-60
2022/04/15 13:00:44;;;;;;;7.20;6.53;;;;;;;;;;5084137;28;20512;-60
2022/04/15 13:03:17;;;;;;;10.75;6.93;;;;;;;;;;5084111;28;20228;-60
2022/04/15 13:05:43;;;;;;;8.02;6.55;;;;;;;;;;5083868;28;20244;-60
2022/04/15 13:08:09;;;;;;;7.47;6.75;;;;;;;;;;5083680;28;20276;-60
2022/04/15 13:10:35;;;;;;;8.93;7.07;;;;;;;;;;5083790;28;20219;-58
2022/04/15 13:13:02;;;;;;;7.22;6.13;;;;;;;;;;5084007;28;20207;-60
2022/04/15 13:15:28;;;;;;;9.63;7.57;;;;;;;;;;5083998;28;20197;-60
2022/04/15 13:17:55;;;;;;;10.35;5.72;;;;;;;;;;5083648;28;20242;-60
2022/04/15 13:20:22;;;;;;;6.18;4.68;;;;;;;;;;5083577;28;20196;-60
2022/04/15 13:22:48;;;;;;;5.65;5.05;;;;;;;;;;5083383;28;20216;-60
2022/04/15 13:25:15;;;;;;;10.13;4.20;;;;;;;;;;5083555;28;20210;-59
2022/04/15 13:27:41;;;;;;;6.47;4.40;;;;;;;;;;5083532;28;20196;-60
2022/04/15 13:30:08;;;;;;;4.10;3.42;;;;;;;;;;5083537;28;20524;-60
2022/04/15 13:32:34;;;;;;;4.13;3.80;;;;;;;;;;5083588;28;20194;-60
2022/04/15 13:35:01;;;;;;;3.80;3.50;;;;;;;;;;5083690;28;20205;-60
2022/04/15 13:37:28;;;;;;;4.03;3.45;;;;;;;;;;5083179;28;20249;-60
2022/04/15 13:39:54;;;;;;;6.32;3.58;;;;;;;;;;5083886;28;20212;-59
2022/04/15 13:42:20;;;;;;;4.90;3.78;;;;;;;;;;5083718;28;20227;-60
2022/04/15 13:44:47;;;;;;;3.95;3.63;;;;;;;;;;5083790;28;20541;-60
2022/04/15 13:47:14;;;;;;;4.65;4.30;;;;;;;;;;5083369;28;20196;-60
2022/04/15 13:49:40;;;;;;;3.55;3.25;;;;;;;;;;5083773;28;20203;-61
2022/04/15 13:57:32;;;;;;;4.68;3.22;;;;;;;;;;5082976;28;20440;-60
2022/04/15 14:00:01;;;;;;;4.80;3.67;;;;;;;;;;5083160;28;20235;-60
2022/04/15 14:02:28;;;;;;;4.32;4.03;;;;;;;;;;5082764;28;20527;-60
2022/04/15 14:04:54;;;;;;;3.88;3.55;;;;;;;;;;5083005;28;20414;-60
2022/04/15 14:07:21;;;;;;;5.50;4.88;;;;;;;;;;5082751;28;20549;-60
2022/04/15 14:09:48;;;;;;;4.57;4.15;;;;;;;;;;5082924;28;20196;-59
2022/04/15 14:12:14;;;;;;;4.32;3.08;;;;;;;;;;5082768;28;20391;-60
2022/04/15 14:14:41;;;;;;;4.28;3.60;;;;;;;;;;5082666;28;20230;-59
2022/04/15 14:17:07;;;;;;;8.18;3.80;;;;;;;;;;5082401;28;20196;-60
2022/04/15 14:19:34;;;;;;;4.15;3.67;;;;;;;;;;5082756;28;20204;-60
2022/04/15 14:22:00;;;;;;;4.45;4.10;;;;;;;;;;5082558;28;20223;-60
2022/04/15 14:24:28;;;;;;;4.10;3.80;;;;;;;;;;5082486;28;20205;-60
2022/04/15 14:26:55;;;;;;;4.53;3.47;;;;;;;;;;5082254;28;20250;-61
2022/04/15 14:29:22;;;;;;;5.30;3.38;;;;;;;;;;5082377;28;20203;-60
2022/04/15 14:31:49;;;;;;;3.60;3.30;;;;;;;;;;5082770;28;20200;-60
2022/04/15 14:34:15;;;;;;;3.90;3.40;;;;;;;;;;5082591;28;20546;-60
2022/04/15 14:36:41;;;;;;;5.50;3.38;;;;;;;;;;5082305;28;20200;-59
2022/04/15 14:39:08;;;;;;;7.28;3.45;;;;;;;;;;5082514;28;20200;-60
2022/04/15 14:41:36;;;;;;;5.28;2.78;;;;;;;;;;5082283;28;20196;-60
2022/04/15 14:44:02;;;;;;;5.20;3.25;;;;;;;;;;5082395;28;20481;-60
2022/04/15 14:46:28;;;;;;;3.80;3.10;;;;;;;;;;5082193;28;20200;-60